Buffalo, WY

2:54 AM MDT on August 28, 2014 (GMT -0600)
MesoWest LITTLE GOOSE WY US SNOTEL | Change Station
CLOSE
Current Station
Personal Weather Station
Location: Big Horn, WY
Elevation: 8870 ft
Nearby Weather Stations

Elev 8870 ft 44.54 °N, 107.18 °W | Updated 1 hour ago

Partly Cloudy
Partly Cloudy
49.0 °F
Feels Like 49.0 °F
N
-
Wind Variable Wind from North

Today
High -- | Low -- °F
--% Chance of Precip.
Yesterday
High -- | Low -- °F
Precip. -- in
6:26 AM 7:52 PM
Waxing Crescent, 7% visible
Pressure 29.98 in
Visibility 10.0 miles
Clouds Few 9500 ft
Dew Point 40.0 °F
Humidity 71%
Rainfall -9999.00 in
Snow Depth Not available.
UV 0 out of 12
Pollen 8.30 out of 12
Air Quality Not available.
Flu Activity Not available.
METAR KSHR 280753Z AUTO 00000KT 10SM FEW095 12/09 A3006 RMK AO2 SLP152 T01170089

More Conditions Fewer Conditions

Pressure 29.98 in
Visibility 10.0 miles
Clouds Few 9500 ft
Dew Point 40.0 °F
Humidity 71%
Rainfall -9999.00 in
Snow Depth Not available.
UV 0 out of 12
Pollen 8.30 out of 12
Air Quality Not available.
Flu Activity Not available.
METAR KSHR 280753Z AUTO 00000KT 10SM FEW095 12/09 A3006 RMK AO2 SLP152 T01170089

More Conditions Fewer Conditions

10-Day Weather Forecast

Almanac

Astronomy

Aug. 28, 2014 Rise Set
Actual Time 6:26 AM MDT 7:52 PM MDT
Civil Twilight 5:56 AM MDT 8:22 PM MDT
Nautical Twilight 5:19 AM MDT 8:59 PM MDT
Astronomical Twilight 4:40 AM MDT 9:37 PM MDT
Moon 9:30 AM MDT 9:08 PM MDT
Length of Visible Light 14h 26m
Length of Day
13h 25m
Tomorrow will be 2m 56s shorter.
Waxing Crescent, 7% of the Moon is Illuminated
Today
Waxing Crescent
Sep 2
First Quarter
Sep 8
Full
Sep 15
Last Quarter
Sep 24
New

Today's Extremes

State Highs State Lows

Community

WunderPhotos

Upload Photos

1,747,918 photos uploaded!

Nearby

Snow Depth

Station Depth Elevation
Casper Mountain 1 in 7850 ft
Sylvan Lake 0 in 8420 ft
Reno Hill 0 in 8500 ft
Base Camp 0 in 7030 ft
Kendall R.S. 1 in 7740 ft

Earthquake Activity

City Distance Mag. Time & Date
No recent earthquake activity has been reported nearby.
Minimum magnitude displayed is 2.5.

Coastal Water Temperatures

Place Temperature
No Stations Reporting

Nearby Weather Stations